sensor_id;sensor_type;location;lat;lon;timestamp;temperature;humidity
909;DHT22;441;51.192;6.788;2024-01-30T00:02:13;21.30;46.20
909;DHT22;441;51.192;6.788;2024-01-30T00:04:39;21.20;46.10
909;DHT22;441;51.192;6.788;2024-01-30T00:07:06;21.20;46.20
909;DHT22;441;51.192;6.788;2024-01-30T00:09:33;21.20;46.10
909;DHT22;441;51.192;6.788;2024-01-30T00:12:02;21.20;46.20
909;DHT22;441;51.192;6.788;2024-01-30T00:14:29;21.20;46.20
909;DHT22;441;51.192;6.788;2024-01-30T00:16:55;21.20;46.20
909;DHT22;441;51.192;6.788;2024-01-30T00:19:22;21.20;46.20
909;DHT22;441;51.192;6.788;2024-01-30T00:21:49;21.20;46.20
909;DHT22;441;51.192;6.788;2024-01-30T00:24:16;21.10;46.10
909;DHT22;441;51.192;6.788;2024-01-30T00:26:43;21.10;46.20
909;DHT22;441;51.192;6.788;2024-01-30T00:29:12;21.10;46.20
909;DHT22;441;51.192;6.788;2024-01-30T00:31:44;21.10;46.20
909;DHT22;441;51.192;6.788;2024-01-30T00:34:11;21.10;46.20
909;DHT22;441;51.192;6.788;2024-01-30T00:36:38;21.10;46.20
909;DHT22;441;51.192;6.788;2024-01-30T00:39:05;21.10;46.20
909;DHT22;441;51.192;6.788;2024-01-30T00:41:34;21.10;46.30
909;DHT22;441;51.192;6.788;2024-01-30T00:44:01;21.10;46.20
909;DHT22;441;51.192;6.788;2024-01-30T00:46:29;21.10;46.20
909;DHT22;441;51.192;6.788;2024-01-30T00:48:56;21.10;46.20
909;DHT22;441;51.192;6.788;2024-01-30T00:51:23;21.10;46.30
909;DHT22;441;51.192;6.788;2024-01-30T00:53:50;21.00;46.20
909;DHT22;441;51.192;6.788;2024-01-30T00:56:17;21.10;46.30
909;DHT22;441;51.192;6.788;2024-01-30T00:58:44;21.10;46.30
909;DHT22;441;51.192;6.788;2024-01-30T01:01:11;21.10;46.30
909;DHT22;441;51.192;6.788;2024-01-30T01:03:39;21.00;46.20
909;DHT22;441;51.192;6.788;2024-01-30T01:06:09;21.00;46.30
909;DHT22;441;51.192;6.788;2024-01-30T01:08:36;21.10;46.30
909;DHT22;441;51.192;6.788;2024-01-30T01:11:03;21.10;46.30
909;DHT22;441;51.192;6.788;2024-01-30T01:13:30;21.00;46.20
909;DHT22;441;51.192;6.788;2024-01-30T01:15:57;21.00;46.20
909;DHT22;441;51.192;6.788;2024-01-30T01:18:23;21.00;46.20
909;DHT22;441;51.192;6.788;2024-01-30T01:20:52;21.00;46.30
909;DHT22;441;51.192;6.788;2024-01-30T01:23:19;21.00;46.30
909;DHT22;441;51.192;6.788;2024-01-30T01:25:45;21.00;46.30
909;DHT22;441;51.192;6.788;2024-01-30T01:28:12;21.00;46.30
909;DHT22;441;51.192;6.788;2024-01-30T01:30:39;21.00;46.30
909;DHT22;441;51.192;6.788;2024-01-30T01:33:06;21.00;46.40
909;DHT22;441;51.192;6.788;2024-01-30T01:35:33;21.00;46.40
909;DHT22;441;51.192;6.788;2024-01-30T01:38:01;21.00;46.40
909;DHT22;441;51.192;6.788;2024-01-30T01:40:29;21.00;46.40
909;DHT22;441;51.192;6.788;2024-01-30T01:42:55;21.00;46.40
909;DHT22;441;51.192;6.788;2024-01-30T01:45:22;21.00;46.40
909;DHT22;441;51.192;6.788;2024-01-30T01:47:51;21.00;46.40
909;DHT22;441;51.192;6.788;2024-01-30T01:50:18;21.00;46.40
909;DHT22;441;51.192;6.788;2024-01-30T01:52:47;20.90;46.30
909;DHT22;441;51.192;6.788;2024-01-30T01:55:16;20.90;46.40
909;DHT22;441;51.192;6.788;2024-01-30T01:57:44;20.90;46.40
909;DHT22;441;51.192;6.788;2024-01-30T02:00:12;20.90;46.40
909;DHT22;441;51.192;6.788;2024-01-30T02:02:40;20.90;46.40
909;DHT22;441;51.192;6.788;2024-01-30T02:05:08;21.00;46.50
909;DHT22;441;51.192;6.788;2024-01-30T02:07:35;20.90;46.40
909;DHT22;441;51.192;6.788;2024-01-30T02:10:02;20.90;46.40
909;DHT22;441;51.192;6.788;2024-01-30T02:12:31;20.90;46.40
909;DHT22;441;51.192;6.788;2024-01-30T02:14:58;20.90;46.40
909;DHT22;441;51.192;6.788;2024-01-30T02:17:25;20.90;46.40
909;DHT22;441;51.192;6.788;2024-01-30T02:19:52;20.90;46.40
909;DHT22;441;51.192;6.788;2024-01-30T02:22:21;20.90;46.50
909;DHT22;441;51.192;6.788;2024-01-30T02:24:49;20.90;46.40
909;DHT22;441;51.192;6.788;2024-01-30T02:27:15;20.90;46.50
909;DHT22;441;51.192;6.788;2024-01-30T02:29:42;20.90;46.50
909;DHT22;441;51.192;6.788;2024-01-30T02:32:09;20.90;46.50
909;DHT22;441;51.192;6.788;2024-01-30T02:34:36;20.80;46.40
909;DHT22;441;51.192;6.788;2024-01-30T02:37:03;20.80;46.50
909;DHT22;441;51.192;6.788;2024-01-30T02:39:32;20.90;46.60
909;DHT22;441;51.192;6.788;2024-01-30T02:41:58;20.80;46.50
909;DHT22;441;51.192;6.788;2024-01-30T02:44:25;20.80;46.50
909;DHT22;441;51.192;6.788;2024-01-30T02:46:52;20.90;46.60
909;DHT22;441;51.192;6.788;2024-01-30T02:49:20;20.80;46.60
909;DHT22;441;51.192;6.788;2024-01-30T02:51:47;20.80;46.60
909;DHT22;441;51.192;6.788;2024-01-30T02:54:14;20.80;46.60
909;DHT22;441;51.192;6.788;2024-01-30T02:56:42;20.80;46.60
909;DHT22;441;51.192;6.788;2024-01-30T02:59:09;20.90;46.70
909;DHT22;441;51.192;6.788;2024-01-30T03:01:42;20.80;46.60
909;DHT22;441;51.192;6.788;2024-01-30T03:04:09;20.80;46.60
909;DHT22;441;51.192;6.788;2024-01-30T03:06:36;20.80;46.50
909;DHT22;441;51.192;6.788;2024-01-30T03:09:03;20.80;46.60
909;DHT22;441;51.192;6.788;2024-01-30T03:11:30;20.80;46.60
909;DHT22;441;51.192;6.788;2024-01-30T03:13:59;20.80;46.60
909;DHT22;441;51.192;6.788;2024-01-30T03:16:26;20.80;46.70
909;DHT22;441;51.192;6.788;2024-01-30T03:18:52;20.80;46.60
909;DHT22;441;51.192;6.788;2024-01-30T03:21:19;20.80;46.60
909;DHT22;441;51.192;6.788;2024-01-30T03:23:47;20.80;46.70
909;DHT22;441;51.192;6.788;2024-01-30T03:26:14;20.80;46.70
909;DHT22;441;51.192;6.788;2024-01-30T03:28:41;20.80;46.70
909;DHT22;441;51.192;6.788;2024-01-30T03:31:09;20.80;46.70
909;DHT22;441;51.192;6.788;2024-01-30T03:33:37;20.80;46.70
909;DHT22;441;51.192;6.788;2024-01-30T03:36:05;20.80;46.70
909;DHT22;441;51.192;6.788;2024-01-30T03:38:32;20.80;46.70
909;DHT22;441;51.192;6.788;2024-01-30T03:40:59;20.80;46.70
909;DHT22;441;51.192;6.788;2024-01-30T03:43:26;20.70;46.70
909;DHT22;441;51.192;6.788;2024-01-30T03:45:53;20.70;46.70
909;DHT22;441;51.192;6.788;2024-01-30T03:48:21;20.70;46.70
909;DHT22;441;51.192;6.788;2024-01-30T03:50:48;20.70;46.60
909;DHT22;441;51.192;6.788;2024-01-30T03:53:15;20.70;46.70
909;DHT22;441;51.192;6.788;2024-01-30T03:55:42;20.70;46.70
909;DHT22;441;51.192;6.788;2024-01-30T03:58:09;20.70;46.70
909;DHT22;441;51.192;6.788;2024-01-30T04:00:36;20.70;46.70
909;DHT22;441;51.192;6.788;2024-01-30T04:03:03;20.70;46.70
909;DHT22;441;51.192;6.788;2024-01-30T04:05:31;20.70;46.60
909;DHT22;441;51.192;6.788;2024-01-30T04:07:58;20.70;46.60
909;DHT22;441;51.192;6.788;2024-01-30T04:10:25;20.70;46.70
909;DHT22;441;51.192;6.788;2024-01-30T04:12:52;20.70;46.70
909;DHT22;441;51.192;6.788;2024-01-30T04:15:19;20.70;46.70
909;DHT22;441;51.192;6.788;2024-01-30T04:17:46;20.70;46.70
909;DHT22;441;51.192;6.788;2024-01-30T04:20:14;20.70;46.70
909;DHT22;441;51.192;6.788;2024-01-30T04:22:43;20.70;47.20
909;DHT22;441;51.192;6.788;2024-01-30T04:25:11;20.70;46.70
909;DHT22;441;51.192;6.788;2024-01-30T04:27:37;20.70;46.70
909;DHT22;441;51.192;6.788;2024-01-30T04:30:05;20.70;46.80
909;DHT22;441;51.192;6.788;2024-01-30T04:32:33;20.70;46.70
909;DHT22;441;51.192;6.788;2024-01-30T04:34:59;20.70;46.80
909;DHT22;441;51.192;6.788;2024-01-30T04:37:26;20.70;46.70
909;DHT22;441;51.192;6.788;2024-01-30T04:39:55;20.70;46.80
909;DHT22;441;51.192;6.788;2024-01-30T04:42:21;20.70;46.80
909;DHT22;441;51.192;6.788;2024-01-30T04:44:49;20.60;46.70
909;DHT22;441;51.192;6.788;2024-01-30T04:47:16;20.60;46.70
909;DHT22;441;51.192;6.788;2024-01-30T04:49:42;20.70;46.80
909;DHT22;441;51.192;6.788;2024-01-30T04:52:09;20.60;46.80
909;DHT22;441;51.192;6.788;2024-01-30T04:54:36;20.60;46.70
909;DHT22;441;51.192;6.788;2024-01-30T04:57:05;20.60;46.60
909;DHT22;441;51.192;6.788;2024-01-30T04:59:35;20.60;46.70
909;DHT22;441;51.192;6.788;2024-01-30T05:02:02;20.60;46.60
909;DHT22;441;51.192;6.788;2024-01-30T05:04:29;20.70;46.70
909;DHT22;441;51.192;6.788;2024-01-30T05:06:56;20.70;46.80
909;DHT22;441;51.192;6.788;2024-01-30T05:09:23;20.70;46.80
909;DHT22;441;51.192;6.788;2024-01-30T05:11:49;20.60;46.80
909;DHT22;441;51.192;6.788;2024-01-30T05:14:18;20.60;46.80
909;DHT22;441;51.192;6.788;2024-01-30T05:16:45;20.60;46.70
909;DHT22;441;51.192;6.788;2024-01-30T05:19:13;20.60;46.80
909;DHT22;441;51.192;6.788;2024-01-30T05:21:40;20.60;46.80
909;DHT22;441;51.192;6.788;2024-01-30T05:24:07;20.70;46.90
909;DHT22;441;51.192;6.788;2024-01-30T05:26:35;20.70;46.90
909;DHT22;441;51.192;6.788;2024-01-30T05:29:02;20.60;46.80
909;DHT22;441;51.192;6.788;2024-01-30T05:31:31;20.60;46.80
909;DHT22;441;51.192;6.788;2024-01-30T05:33:58;20.60;46.90
909;DHT22;441;51.192;6.788;2024-01-30T05:36:25;20.70;47.00
909;DHT22;441;51.192;6.788;2024-01-30T05:38:52;20.60;46.80
909;DHT22;441;51.192;6.788;2024-01-30T05:41:19;20.70;46.50
909;DHT22;441;51.192;6.788;2024-01-30T05:43:46;20.70;46.90
909;DHT22;441;51.192;6.788;2024-01-30T05:46:13;20.70;48.10
909;DHT22;441;51.192;6.788;2024-01-30T05:48:41;20.70;49.40
909;DHT22;441;51.192;6.788;2024-01-30T05:51:08;20.70;50.80
909;DHT22;441;51.192;6.788;2024-01-30T05:53:35;20.70;51.70
909;DHT22;441;51.192;6.788;2024-01-30T05:56:03;20.70;52.20
909;DHT22;441;51.192;6.788;2024-01-30T05:58:30;20.80;52.50
909;DHT22;441;51.192;6.788;2024-01-30T06:00:57;20.80;52.40
909;DHT22;441;51.192;6.788;2024-01-30T06:03:24;20.80;52.80
909;DHT22;441;51.192;6.788;2024-01-30T06:05:52;20.80;52.90
909;DHT22;441;51.192;6.788;2024-01-30T06:08:19;20.80;53.50
909;DHT22;441;51.192;6.788;2024-01-30T06:10:46;20.80;52.80
909;DHT22;441;51.192;6.788;2024-01-30T06:13:13;20.80;52.40
909;DHT22;441;51.192;6.788;2024-01-30T06:15:40;20.80;51.90
909;DHT22;441;51.192;6.788;2024-01-30T06:18:07;20.80;51.60
909;DHT22;441;51.192;6.788;2024-01-30T06:20:35;20.80;51.50
909;DHT22;441;51.192;6.788;2024-01-30T06:23:03;20.80;51.20
909;DHT22;441;51.192;6.788;2024-01-30T06:25:30;20.80;50.90
909;DHT22;441;51.192;6.788;2024-01-30T06:27:57;20.80;50.70
909;DHT22;441;51.192;6.788;2024-01-30T06:30:24;20.80;50.50
909;DHT22;441;51.192;6.788;2024-01-30T06:32:51;20.80;50.30
909;DHT22;441;51.192;6.788;2024-01-30T06:35:18;20.80;50.20
909;DHT22;441;51.192;6.788;2024-01-30T06:37:45;20.80;50.00
909;DHT22;441;51.192;6.788;2024-01-30T06:40:13;20.80;49.80
909;DHT22;441;51.192;6.788;2024-01-30T06:42:40;20.80;49.60
909;DHT22;441;51.192;6.788;2024-01-30T06:45:08;20.80;49.50
909;DHT22;441;51.192;6.788;2024-01-30T06:47:35;20.80;49.30
909;DHT22;441;51.192;6.788;2024-01-30T06:50:02;20.80;49.20
909;DHT22;441;51.192;6.788;2024-01-30T06:52:29;20.80;49.10
909;DHT22;441;51.192;6.788;2024-01-30T06:54:56;20.80;49.00
909;DHT22;441;51.192;6.788;2024-01-30T06:57:24;20.80;48.90
909;DHT22;441;51.192;6.788;2024-01-30T06:59:54;20.80;48.80
909;DHT22;441;51.192;6.788;2024-01-30T07:02:21;20.80;48.70
909;DHT22;441;51.192;6.788;2024-01-30T07:04:48;20.80;48.60
909;DHT22;441;51.192;6.788;2024-01-30T07:07:15;20.80;48.50
909;DHT22;441;51.192;6.788;2024-01-30T07:09:42;20.80;48.40
909;DHT22;441;51.192;6.788;2024-01-30T07:12:09;20.80;48.30
909;DHT22;441;51.192;6.788;2024-01-30T07:14:37;20.80;48.30
909;DHT22;441;51.192;6.788;2024-01-30T07:17:04;20.80;48.20
909;DHT22;441;51.192;6.788;2024-01-30T07:19:31;20.80;48.10
909;DHT22;441;51.192;6.788;2024-01-30T07:22:00;20.80;48.00
909;DHT22;441;51.192;6.788;2024-01-30T07:24:27;20.70;47.90
909;DHT22;441;51.192;6.788;2024-01-30T07:26:54;20.80;47.90
909;DHT22;441;51.192;6.788;2024-01-30T07:29:20;20.70;47.70
909;DHT22;441;51.192;6.788;2024-01-30T07:31:49;20.70;47.70
909;DHT22;441;51.192;6.788;2024-01-30T07:34:16;20.70;47.60
909;DHT22;441;51.192;6.788;2024-01-30T07:36:43;20.70;47.60
909;DHT22;441;51.192;6.788;2024-01-30T07:39:10;20.70;47.50
909;DHT22;441;51.192;6.788;2024-01-30T07:41:36;20.70;47.50
909;DHT22;441;51.192;6.788;2024-01-30T07:44:04;20.70;47.40
909;DHT22;441;51.192;6.788;2024-01-30T07:46:30;20.70;47.40
909;DHT22;441;51.192;6.788;2024-01-30T07:48:59;20.70;47.30
909;DHT22;441;51.192;6.788;2024-01-30T07:51:26;20.70;47.30
909;DHT22;441;51.192;6.788;2024-01-30T07:53:54;20.70;47.20
909;DHT22;441;51.192;6.788;2024-01-30T07:56:21;20.70;47.20
909;DHT22;441;51.192;6.788;2024-01-30T07:58:48;20.70;47.10
909;DHT22;441;51.192;6.788;2024-01-30T08:01:15;20.70;47.10
909;DHT22;441;51.192;6.788;2024-01-30T08:03:42;20.70;47.00
909;DHT22;441;51.192;6.788;2024-01-30T08:06:10;20.70;47.00
909;DHT22;441;51.192;6.788;2024-01-30T08:08:37;20.70;47.00
909;DHT22;441;51.192;6.788;2024-01-30T08:11:04;20.70;46.90
909;DHT22;441;51.192;6.788;2024-01-30T08:13:31;20.70;46.90
909;DHT22;441;51.192;6.788;2024-01-30T08:15:58;20.70;46.90
909;DHT22;441;51.192;6.788;2024-01-30T08:18:25;20.70;46.80
909;DHT22;441;51.192;6.788;2024-01-30T08:20:52;20.70;47.30
909;DHT22;441;51.192;6.788;2024-01-30T08:23:20;20.70;46.70
909;DHT22;441;51.192;6.788;2024-01-30T08:25:47;20.70;46.70
909;DHT22;441;51.192;6.788;2024-01-30T08:28:14;20.70;46.70
909;DHT22;441;51.192;6.788;2024-01-30T08:30:40;20.70;46.70
909;DHT22;441;51.192;6.788;2024-01-30T08:33:07;20.70;46.60
909;DHT22;441;51.192;6.788;2024-01-30T08:35:34;20.70;46.60
909;DHT22;441;51.192;6.788;2024-01-30T08:38:01;20.70;46.60
909;DHT22;441;51.192;6.788;2024-01-30T08:40:30;20.70;46.50
909;DHT22;441;51.192;6.788;2024-01-30T08:42:57;20.70;46.50
909;DHT22;441;51.192;6.788;2024-01-30T08:45:24;20.60;46.40
909;DHT22;441;51.192;6.788;2024-01-30T08:47:51;20.60;46.40
909;DHT22;441;51.192;6.788;2024-01-30T08:50:18;20.60;46.40
909;DHT22;441;51.192;6.788;2024-01-30T08:52:44;20.60;46.30
909;DHT22;441;51.192;6.788;2024-01-30T08:55:11;20.70;46.40
909;DHT22;441;51.192;6.788;2024-01-30T08:57:40;20.70;46.40
909;DHT22;441;51.192;6.788;2024-01-30T09:00:07;20.60;46.30
909;DHT22;441;51.192;6.788;2024-01-30T09:02:35;20.60;46.20
909;DHT22;441;51.192;6.788;2024-01-30T09:05:02;20.70;46.30
909;DHT22;441;51.192;6.788;2024-01-30T09:07:29;20.60;46.20
909;DHT22;441;51.192;6.788;2024-01-30T09:09:56;20.60;46.20
909;DHT22;441;51.192;6.788;2024-01-30T09:12:23;20.60;46.20
909;DHT22;441;51.192;6.788;2024-01-30T09:14:52;20.70;46.80
909;DHT22;441;51.192;6.788;2024-01-30T09:17:19;20.60;46.10
909;DHT22;441;51.192;6.788;2024-01-30T09:19:46;20.60;46.10
909;DHT22;441;51.192;6.788;2024-01-30T09:22:13;20.60;46.10
909;DHT22;441;51.192;6.788;2024-01-30T09:24:40;20.60;46.10
909;DHT22;441;51.192;6.788;2024-01-30T09:27:07;20.60;46.00
909;DHT22;441;51.192;6.788;2024-01-30T09:29:34;20.60;46.00
909;DHT22;441;51.192;6.788;2024-01-30T09:32:04;20.60;46.00
909;DHT22;441;51.192;6.788;2024-01-30T09:34:32;20.60;46.00
909;DHT22;441;51.192;6.788;2024-01-30T09:36:58;20.60;45.90
909;DHT22;441;51.192;6.788;2024-01-30T09:39:26;20.60;45.90
909;DHT22;441;51.192;6.788;2024-01-30T09:42:00;20.60;45.90
909;DHT22;441;51.192;6.788;2024-01-30T09:44:29;20.60;45.90
909;DHT22;441;51.192;6.788;2024-01-30T09:46:57;20.60;45.90
909;DHT22;441;51.192;6.788;2024-01-30T09:49:32;20.60;45.90
909;DHT22;441;51.192;6.788;2024-01-30T09:52:00;20.60;45.90
909;DHT22;441;51.192;6.788;2024-01-30T09:54:29;20.60;45.80
909;DHT22;441;51.192;6.788;2024-01-30T09:56:56;20.60;45.80
909;DHT22;441;51.192;6.788;2024-01-30T09:59:23;20.60;45.80
909;DHT22;441;51.192;6.788;2024-01-30T10:01:50;20.60;45.80
909;DHT22;441;51.192;6.788;2024-01-30T10:04:17;20.60;45.80
909;DHT22;441;51.192;6.788;2024-01-30T10:06:46;20.60;45.80
909;DHT22;441;51.192;6.788;2024-01-30T10:09:14;20.60;45.80
909;DHT22;441;51.192;6.788;2024-01-30T10:11:41;20.60;45.70
909;DHT22;441;51.192;6.788;2024-01-30T10:14:07;20.60;45.70
909;DHT22;441;51.192;6.788;2024-01-30T10:16:35;20.60;45.70
909;DHT22;441;51.192;6.788;2024-01-30T10:19:01;20.60;45.70
909;DHT22;441;51.192;6.788;2024-01-30T10:21:30;20.60;45.70
909;DHT22;441;51.192;6.788;2024-01-30T10:23:59;20.60;45.60
909;DHT22;441;51.192;6.788;2024-01-30T10:26:26;20.60;45.70
909;DHT22;441;51.192;6.788;2024-01-30T10:28:55;20.60;45.70
909;DHT22;441;51.192;6.788;2024-01-30T10:31:21;20.60;45.70
909;DHT22;441;51.192;6.788;2024-01-30T10:33:49;20.60;45.60
909;DHT22;441;51.192;6.788;2024-01-30T10:36:17;20.60;45.60
909;DHT22;441;51.192;6.788;2024-01-30T10:38:45;20.60;45.60
909;DHT22;441;51.192;6.788;2024-01-30T10:41:19;20.50;46.10
909;DHT22;441;51.192;6.788;2024-01-30T10:44:09;20.60;45.60
909;DHT22;441;51.192;6.788;2024-01-30T10:46:38;20.60;45.60
909;DHT22;441;51.192;6.788;2024-01-30T10:49:05;20.60;45.60
909;DHT22;441;51.192;6.788;2024-01-30T10:51:32;20.60;45.60
909;DHT22;441;51.192;6.788;2024-01-30T10:54:01;20.50;45.50
909;DHT22;441;51.192;6.788;2024-01-30T10:56:32;20.50;45.50
909;DHT22;441;51.192;6.788;2024-01-30T10:58:59;20.60;45.50
909;DHT22;441;51.192;6.788;2024-01-30T11:01:27;20.60;45.50
909;DHT22;441;51.192;6.788;2024-01-30T11:03:55;20.60;45.50
909;DHT22;441;51.192;6.788;2024-01-30T11:06:23;20.60;45.40
909;DHT22;441;51.192;6.788;2024-01-30T11:09:01;20.60;45.40
909;DHT22;441;51.192;6.788;2024-01-30T11:11:30;20.60;45.40
909;DHT22;441;51.192;6.788;2024-01-30T11:14:01;20.60;45.40
909;DHT22;441;51.192;6.788;2024-01-30T11:16:31;20.60;45.40
909;DHT22;441;51.192;6.788;2024-01-30T11:19:00;20.60;45.40
909;DHT22;441;51.192;6.788;2024-01-30T11:21:27;20.60;45.40
909;DHT22;441;51.192;6.788;2024-01-30T11:23:55;20.50;45.30
909;DHT22;441;51.192;6.788;2024-01-30T11:26:27;20.60;45.40
909;DHT22;441;51.192;6.788;2024-01-30T11:28:55;20.60;45.40
909;DHT22;441;51.192;6.788;2024-01-30T11:31:23;20.60;45.40
909;DHT22;441;51.192;6.788;2024-01-30T11:33:52;20.60;45.40
909;DHT22;441;51.192;6.788;2024-01-30T11:36:22;20.60;45.40
909;DHT22;441;51.192;6.788;2024-01-30T11:38:50;20.50;45.30
909;DHT22;441;51.192;6.788;2024-01-30T11:41:18;20.60;45.40
909;DHT22;441;51.192;6.788;2024-01-30T11:43:51;20.60;45.30
909;DHT22;441;51.192;6.788;2024-01-30T11:46:19;20.60;45.30
909;DHT22;441;51.192;6.788;2024-01-30T11:48:47;20.60;45.30
909;DHT22;441;51.192;6.788;2024-01-30T11:51:14;20.50;45.30
909;DHT22;441;51.192;6.788;2024-01-30T11:53:41;20.60;45.30
909;DHT22;441;51.192;6.788;2024-01-30T11:56:08;20.50;45.20
909;DHT22;441;51.192;6.788;2024-01-30T11:58:35;20.50;45.20
909;DHT22;441;51.192;6.788;2024-01-30T12:01:02;20.50;45.20
909;DHT22;441;51.192;6.788;2024-01-30T12:03:30;20.50;45.20
909;DHT22;441;51.192;6.788;2024-01-30T12:05:58;20.50;45.20
909;DHT22;441;51.192;6.788;2024-01-30T12:08:25;20.50;45.20
909;DHT22;441;51.192;6.788;2024-01-30T12:10:56;20.50;45.20
909;DHT22;441;51.192;6.788;2024-01-30T12:13:24;20.50;45.20
909;DHT22;441;51.192;6.788;2024-01-30T12:15:52;20.50;45.20
909;DHT22;441;51.192;6.788;2024-01-30T12:18:19;20.50;45.20
909;DHT22;441;51.192;6.788;2024-01-30T12:20:58;20.50;45.20
909;DHT22;441;51.192;6.788;2024-01-30T12:23:25;20.50;45.20
909;DHT22;441;51.192;6.788;2024-01-30T12:25:52;20.50;45.20
909;DHT22;441;51.192;6.788;2024-01-30T12:28:20;20.50;45.20
909;DHT22;441;51.192;6.788;2024-01-30T12:30:47;20.60;45.20
909;DHT22;441;51.192;6.788;2024-01-30T12:33:16;20.50;45.10
909;DHT22;441;51.192;6.788;2024-01-30T12:35:46;20.50;45.10
909;DHT22;441;51.192;6.788;2024-01-30T12:38:14;20.50;45.10
909;DHT22;441;51.192;6.788;2024-01-30T12:40:41;20.50;45.10
909;DHT22;441;51.192;6.788;2024-01-30T12:43:08;20.50;45.10
909;DHT22;441;51.192;6.788;2024-01-30T12:45:36;20.50;45.10
909;DHT22;441;51.192;6.788;2024-01-30T12:48:03;20.50;45.10
909;DHT22;441;51.192;6.788;2024-01-30T12:50:30;20.50;45.10
909;DHT22;441;51.192;6.788;2024-01-30T12:52:57;20.50;45.60
909;DHT22;441;51.192;6.788;2024-01-30T12:55:25;20.50;45.10
909;DHT22;441;51.192;6.788;2024-01-30T12:57:54;20.50;45.10
909;DHT22;441;51.192;6.788;2024-01-30T13:00:21;20.60;45.20
909;DHT22;441;51.192;6.788;2024-01-30T13:02:48;20.50;45.10
909;DHT22;441;51.192;6.788;2024-01-30T13:05:15;20.50;45.10
909;DHT22;441;51.192;6.788;2024-01-30T13:07:42;20.50;45.00
909;DHT22;441;51.192;6.788;2024-01-30T13:10:09;20.50;45.00
909;DHT22;441;51.192;6.788;2024-01-30T13:12:38;20.50;45.00
909;DHT22;441;51.192;6.788;2024-01-30T13:15:06;20.50;45.00
909;DHT22;441;51.192;6.788;2024-01-30T13:17:33;20.50;45.10
909;DHT22;441;51.192;6.788;2024-01-30T13:20:00;20.50;45.00
909;DHT22;441;51.192;6.788;2024-01-30T13:22:27;20.50;45.00
909;DHT22;441;51.192;6.788;2024-01-30T13:24:54;20.50;45.00
909;DHT22;441;51.192;6.788;2024-01-30T13:27:21;20.50;45.00
909;DHT22;441;51.192;6.788;2024-01-30T13:29:49;20.50;45.00
909;DHT22;441;51.192;6.788;2024-01-30T13:32:16;20.50;45.00
909;DHT22;441;51.192;6.788;2024-01-30T13:34:43;20.50;45.10
909;DHT22;441;51.192;6.788;2024-01-30T13:37:10;20.50;45.10
909;DHT22;441;51.192;6.788;2024-01-30T13:39:38;20.50;45.00
909;DHT22;441;51.192;6.788;2024-01-30T13:42:05;20.50;45.00
909;DHT22;441;51.192;6.788;2024-01-30T13:44:33;20.50;45.10
909;DHT22;441;51.192;6.788;2024-01-30T13:47:02;20.50;45.00
909;DHT22;441;51.192;6.788;2024-01-30T13:49:29;20.50;45.50
909;DHT22;441;51.192;6.788;2024-01-30T13:51:56;20.50;45.00
909;DHT22;441;51.192;6.788;2024-01-30T13:54:23;20.50;45.00
909;DHT22;441;51.192;6.788;2024-01-30T13:56:51;20.50;45.00
909;DHT22;441;51.192;6.788;2024-01-30T13:59:18;20.50;45.00
909;DHT22;441;51.192;6.788;2024-01-30T14:01:49;20.50;45.00
909;DHT22;441;51.192;6.788;2024-01-30T14:04:17;20.50;45.00
909;DHT22;441;51.192;6.788;2024-01-30T14:06:44;20.50;45.00
909;DHT22;441;51.192;6.788;2024-01-30T14:09:11;20.50;45.00
909;DHT22;441;51.192;6.788;2024-01-30T14:11:40;20.50;45.00
909;DHT22;441;51.192;6.788;2024-01-30T14:14:08;20.50;45.00
909;DHT22;441;51.192;6.788;2024-01-30T14:16:35;20.50;45.00
909;DHT22;441;51.192;6.788;2024-01-30T14:19:02;20.50;45.00
909;DHT22;441;51.192;6.788;2024-01-30T14:21:30;20.50;45.00
909;DHT22;441;51.192;6.788;2024-01-30T14:23:57;20.50;45.00
909;DHT22;441;51.192;6.788;2024-01-30T14:26:24;20.50;45.00
909;DHT22;441;51.192;6.788;2024-01-30T14:28:51;20.50;45.00
909;DHT22;441;51.192;6.788;2024-01-30T14:31:18;20.50;45.00
909;DHT22;441;51.192;6.788;2024-01-30T14:33:46;20.50;45.00
909;DHT22;441;51.192;6.788;2024-01-30T14:36:13;20.50;45.00
909;DHT22;441;51.192;6.788;2024-01-30T14:38:42;20.50;45.00
909;DHT22;441;51.192;6.788;2024-01-30T14:41:09;20.50;45.00
909;DHT22;441;51.192;6.788;2024-01-30T14:43:36;20.50;45.00
909;DHT22;441;51.192;6.788;2024-01-30T14:46:03;20.50;45.00
909;DHT22;441;51.192;6.788;2024-01-30T14:48:32;20.50;45.40
909;DHT22;441;51.192;6.788;2024-01-30T14:50:59;20.40;48.20
909;DHT22;441;51.192;6.788;2024-01-30T14:53:26;20.50;49.00
909;DHT22;441;51.192;6.788;2024-01-30T14:55:54;20.50;49.00
909;DHT22;441;51.192;6.788;2024-01-30T14:58:21;20.60;48.70
909;DHT22;441;51.192;6.788;2024-01-30T15:00:48;20.60;49.20
909;DHT22;441;51.192;6.788;2024-01-30T15:03:15;20.70;48.50
909;DHT22;441;51.192;6.788;2024-01-30T15:05:42;20.80;48.60
909;DHT22;441;51.192;6.788;2024-01-30T15:08:12;20.80;49.20
909;DHT22;441;51.192;6.788;2024-01-30T15:10:39;20.90;48.90
909;DHT22;441;51.192;6.788;2024-01-30T15:13:07;20.90;49.50
909;DHT22;441;51.192;6.788;2024-01-30T15:15:34;21.00;49.40
909;DHT22;441;51.192;6.788;2024-01-30T15:18:01;21.00;49.10
909;DHT22;441;51.192;6.788;2024-01-30T15:20:28;21.10;49.10
909;DHT22;441;51.192;6.788;2024-01-30T15:22:56;21.10;49.10
909;DHT22;441;51.192;6.788;2024-01-30T15:25:24;21.20;48.60
909;DHT22;441;51.192;6.788;2024-01-30T15:27:51;21.20;48.10
909;DHT22;441;51.192;6.788;2024-01-30T15:30:19;21.20;47.90
909;DHT22;441;51.192;6.788;2024-01-30T15:32:46;21.20;48.20
909;DHT22;441;51.192;6.788;2024-01-30T15:35:14;21.30;47.80
909;DHT22;441;51.192;6.788;2024-01-30T15:37:41;21.30;47.90
909;DHT22;441;51.192;6.788;2024-01-30T15:40:08;21.30;47.60
909;DHT22;441;51.192;6.788;2024-01-30T15:42:37;21.40;47.60
909;DHT22;441;51.192;6.788;2024-01-30T15:45:05;21.40;47.60
909;DHT22;441;51.192;6.788;2024-01-30T15:47:33;21.40;47.60
909;DHT22;441;51.192;6.788;2024-01-30T15:50:00;21.40;47.40
909;DHT22;441;51.192;6.788;2024-01-30T15:52:27;21.50;47.60
909;DHT22;441;51.192;6.788;2024-01-30T15:54:54;21.50;47.30
909;DHT22;441;51.192;6.788;2024-01-30T15:57:21;21.40;47.00
909;DHT22;441;51.192;6.788;2024-01-30T15:59:48;21.50;47.10
909;DHT22;441;51.192;6.788;2024-01-30T16:02:15;21.50;47.00
909;DHT22;441;51.192;6.788;2024-01-30T16:04:45;21.50;46.90
909;DHT22;441;51.192;6.788;2024-01-30T16:07:12;21.60;47.00
909;DHT22;441;51.192;6.788;2024-01-30T16:09:39;21.50;47.00
909;DHT22;441;51.192;6.788;2024-01-30T16:12:06;21.60;46.90
909;DHT22;441;51.192;6.788;2024-01-30T16:14:33;21.60;47.10
909;DHT22;441;51.192;6.788;2024-01-30T16:17:01;21.60;47.10
909;DHT22;441;51.192;6.788;2024-01-30T16:19:28;21.60;47.10
909;DHT22;441;51.192;6.788;2024-01-30T16:21:57;21.60;47.20
909;DHT22;441;51.192;6.788;2024-01-30T16:24:23;21.60;47.20
909;DHT22;441;51.192;6.788;2024-01-30T16:26:51;21.60;47.20
909;DHT22;441;51.192;6.788;2024-01-30T16:29:18;21.60;47.20
909;DHT22;441;51.192;6.788;2024-01-30T16:31:45;21.60;47.10
909;DHT22;441;51.192;6.788;2024-01-30T16:34:12;21.60;47.10
909;DHT22;441;51.192;6.788;2024-01-30T16:36:38;21.60;47.10